Latest Weather Observations for Blackwater Airport

IDQ60801

Issued at 7:05 am EST Tuesday 21 October 2014 (issued every 30 minutes, with the page automatically refreshed every 10 minutes)

About weather observations | Map of weather stations | Latest weather observations for QLD | Other Formats
Station Details ID: 035134 Name: BLACKWATER AIRPORT Lat: -23.60 Lon: 148.81 Height: 192.95 m
Data from the previous 72 hours. | See also: Recent months at Blackwater Airport
Date/Time
EST
Temp
°C
App
Temp
°C
Dew
Point
Rel
Hum
%
Delta-T
°C
Wind Press
QNH
hPa
Press
MSL
hPa
Rain
since 9 am
mm
Dir
 
Spd
km/h
Gust
km/h
Spd
kts
Gust
kts
21/07:00am 20.6 17.8 12.6 60 4.5 ESE 19 28 10 15 1024.7 1023.8 0.0
21/06:30am 19.2 17.3 12.9 67 3.6 ESE 15 20 8 11 1024.3 1023.4 0.0
21/06:00am 17.8 16.6 12.9 73 2.8 SE 11 13 6 7 1023.9 1023.0 0.0
21/05:30am 17.1 16.2 12.6 75 2.5 SSE 9 11 5 6 1023.4 1022.5 0.0
21/05:00am 17.4 16.5 12.7 74 2.6 SE 9 13 5 7 1023.1 1022.2 0.0
21/04:30am 17.4 16.6 12.9 75 2.5 ESE 9 15 5 8 1023.0 1022.1 0.0
21/04:00am 17.0 16.0 12.3 74 2.6 ESE 9 13 5 7 1022.9 1022.0 0.0
21/03:30am 17.8 15.0 12.7 72 2.9 E 19 26 10 14 1022.8 1021.9 0.0
21/03:00am 18.0 15.6 12.5 70 3.1 E 17 24 9 13 1022.7 1021.8 0.0
21/02:30am 17.8 15.2 12.0 69 3.2 E 17 26 9 14 1022.4 1021.5 0.0
21/02:00am 18.1 15.1 11.9 67 3.4 E 19 26 10 14 1022.3 1021.4 0.0
21/01:30am 17.8 15.0 11.4 66 3.5 E 17 22 9 12 1022.4 1021.5 0.0
21/01:00am 18.2 14.8 11.3 64 3.8 ENE 20 28 11 15 1022.7 1021.8 0.0
21/12:30am 18.4 14.3 11.5 64 3.8 ENE 24 37 13 20 1022.8 1021.9 0.0
21/12:00am 18.6 14.9 11.4 63 4.0 ENE 22 28 12 15 1023.0 1022.1 0.0
 
Date/Time
EST
Temp
°C
App
Temp
°C
Dew
Point
Rel
Hum
%
Delta-T
°C
Wind Press
QNH
hPa
Press
MSL
hPa
Rain
since 9 am
mm
Dir
 
Spd
km/h
Gust
km/h
Spd
kts
Gust
kts
20/11:30pm 18.9 15.6 11.0 60 4.3 ENE 19 28 10 15 1023.4 1022.5 0.0
20/11:00pm 19.6 15.9 10.3 55 5.0 NE 20 28 11 15 1023.4 1022.5 0.0
20/10:30pm 20.1 15.6 9.9 52 5.5 ENE 24 32 13 17 1023.2 1022.3 0.0
20/10:00pm 20.7 16.7 9.0 47 6.2 ENE 20 28 11 15 1023.1 1022.2 0.0
20/09:30pm 21.6 16.3 8.5 43 7.0 ENE 26 35 14 19 1022.9 1022.0 0.0
20/09:00pm 22.3 16.5 8.1 40 7.5 ENE 28 37 15 20 1022.5 1021.6 0.0
20/08:30pm 22.9 18.4 7.0 36 8.3 ENE 20 28 11 15 1021.9 1021.0 0.0
20/08:00pm 23.0 18.8 5.9 33 8.7 ENE 17 24 9 13 1021.3 1020.3 0.0
20/07:30pm 25.0 20.9 6.2 30 9.8 E 17 32 9 17 1020.6 1019.6 0.0
20/07:00pm 24.4 21.0 5.7 30 9.6 E 13 15 7 8 1020.0 1019.0 0.0
20/06:30pm 25.6 21.8 5.8 28 10.3 E 15 19 8 10 1019.8 1018.8 0.0
20/06:00pm 27.4 22.8 5.6 25 11.4 E 19 26 10 14 1019.4 1018.5 0.0
20/05:30pm 28.4 23.3 5.9 24 11.9 E 22 32 12 17 1019.0 1018.1 0.0
20/05:00pm 29.2 23.7 6.0 23 12.3 E 24 33 13 18 1018.7 1017.8 0.0
20/04:30pm 29.4 23.8 5.5 22 12.6 E 24 33 13 18 1018.6 1017.7 0.0
20/04:00pm 30.2 25.0 5.5 21 13.1 E 22 32 12 17 1018.4 1017.5 0.0
20/03:30pm 30.8 26.1 6.0 21 13.3 E 20 35 11 19 1018.5 1017.6 0.0
20/03:00pm 30.4 24.3 4.9 20 13.4 ENE 26 39 14 21 1018.6 1017.7 0.0
20/02:30pm 30.7 25.4 6.6 22 13.0 ENE 24 35 13 19 1019.0 1018.1 0.0
20/02:00pm 29.6 24.0 5.6 22 12.7 E 24 33 13 18 1019.6 1018.6 0.0
20/01:30pm 29.4 24.9 6.1 23 12.4 ESE 19 26 10 14 1020.1 1019.1 0.0
20/01:00pm 29.6 25.7 6.9 24 12.2 E 17 28 9 15 1020.6 1019.6 0.0
20/12:30pm 29.6 25.7 6.9 24 12.3 ENE 17 30 9 16 1021.3 1020.3 0.0
20/12:00pm 28.2 23.5 5.1 23 12.0 E 19 28 10 15 1021.9 1021.0 0.0
20/11:30am 27.0 22.5 5.9 26 11.0 ENE 19 30 10 16 1022.6 1021.7 0.0
20/11:00am 26.8 22.7 6.2 27 10.8 E 17 30 9 16 1023.2 1022.3 0.0
20/10:30am 26.3 22.0 7.8 31 10.0 E 20 30 11 16 1023.7 1022.8 0.0
20/10:00am 25.1 20.9 8.1 34 9.1 ENE 20 26 11 14 1024.1 1023.2 0.0
20/09:30am 24.8 20.0 8.7 36 8.7 E 24 35 13 19 1024.5 1023.6 0.0
20/09:00am 23.8 19.8 8.2 37 8.3 E 19 28 10 15 1024.8 1023.9 0.0
20/08:30am 23.4 19.7 9.4 41 7.6 ENE 19 30 10 16 1024.8 1023.9 0.0
20/08:00am 21.9 18.7 9.8 46 6.6 E 17 22 9 12 1024.7 1023.8 0.0
20/07:30am 20.4 19.6 11.6 57 4.9 S 7 15 4 8 1024.8 1023.9 0.0
20/07:00am 19.0 18.1 12.5 66 3.6 S 9 13 5 7 1024.8 1023.9 0.0
20/06:30am 18.1 17.1 12.3 69 3.2 SSE 9 11 5 6 1024.8 1023.9 0.0
20/06:00am 16.6 15.5 11.9 74 2.6 SE 9 11 5 6 1024.6 1023.7 0.0
20/05:30am 16.3 14.4 11.9 75 2.4 ESE 13 15 7 8 1024.4 1023.5 0.0
20/05:00am 17.2 15.0 12.1 72 2.8 E 15 20 8 11 1024.1 1023.2 0.0
20/04:30am 17.7 15.6 12.4 71 3.0 ESE 15 20 8 11 1023.8 1022.9 0.0
20/04:00am 17.8 15.7 12.5 71 3.0 ESE 15 20 8 11 1023.5 1022.6 0.0
20/03:30am 17.9 15.5 12.6 71 3.0 E 17 26 9 14 1023.2 1022.3 0.0
20/03:00am 18.0 15.2 12.5 70 3.1 E 19 24 10 13 1022.9 1022.0 0.0
20/02:30am 18.1 15.3 12.5 70 3.1 E 19 30 10 16 1022.8 1021.9 0.0
20/02:00am 17.7 14.7 12.6 72 2.9 E 20 24 11 13 1022.9 1022.0 0.0
20/01:30am 17.6 15.2 12.7 73 2.8 ENE 17 22 9 12 1023.2 1022.3 0.0
20/01:00am 18.1 15.7 12.5 70 3.1 ENE 17 22 9 12 1023.3 1022.4 0.0
20/12:30am 18.3 16.2 12.5 69 3.3 NE 15 22 8 12 1023.6 1022.7 0.0
20/12:00am 18.6 16.2 12.6 68 3.4 NE 17 28 9 15 1023.7 1022.8 0.0
 
Date/Time
EST
Temp
°C
App
Temp
°C
Dew
Point
Rel
Hum
%
Delta-T
°C
Wind Press
QNH
hPa
Press
MSL
hPa
Rain
since 9 am
mm
Dir
 
Spd
km/h
Gust
km/h
Spd
kts
Gust
kts
19/11:30pm 19.0 14.5 12.5 66 3.7 ENE 28 39 15 21 1023.7 1022.8 0.0
19/11:00pm 19.1 16.1 12.4 65 3.8 ENE 20 30 11 16 1024.0 1023.1 0.0
19/10:30pm 19.3 15.5 12.3 64 3.9 ENE 24 35 13 19 1024.2 1023.3 0.0
19/10:00pm 19.7 15.1 12.2 62 4.2 ENE 28 41 15 22 1024.2 1023.3 0.0
19/09:30pm 20.2 15.2 12.2 60 4.5 ENE 30 43 16 23 1024.1 1023.2 0.0
19/09:00pm 20.9 15.9 12.1 57 5.0 ENE 30 39 16 21 1023.7 1022.8 0.0
19/08:30pm 21.6 17.4 12.5 56 5.2 ENE 26 35 14 19 1023.1 1022.2 0.0
19/08:00pm 22.6 19.0 11.7 50 6.1 ENE 22 30 12 16 1022.7 1021.8 0.0
19/07:30pm 22.6 19.9 10.4 46 6.7 ENE 15 24 8 13 1022.3 1021.4 0.0
19/07:00pm 24.2 20.7 10.1 41 7.8 ENE 19 24 10 13 1021.8 1020.9 0.0
19/06:30pm 24.6 21.4 8.5 36 8.7 ENE 15 19 8 10 1021.3 1020.3 0.0
19/06:00pm 26.1 22.4 8.1 32 9.7 E 17 26 9 14 1020.9 1019.9 0.0
19/05:30pm 27.4 23.2 8.3 30 10.4 E 20 30 11 16 1020.6 1019.6 0.0
19/05:00pm 27.9 22.9 8.2 29 10.8 E 24 32 13 17 1020.4 1019.4 0.0
19/04:30pm 28.8 24.1 7.9 27 11.4 E 22 35 12 19 1020.2 1019.2 0.0
19/04:00pm 29.0 24.8 8.1 27 11.5 E 20 28 11 15 1020.1 1019.1 0.0
19/03:30pm 29.2 24.9 7.2 25 11.9 ENE 19 26 10 14 1020.2 1019.2 0.0
19/03:00pm 28.5 24.2 7.7 27 11.3 ESE 20 28 11 15 1020.4 1019.4 0.0
19/02:30pm 28.8 24.0 9.0 29 11.0 E 24 35 13 19 1020.8 1019.8 0.0
19/02:00pm 28.0 23.3 9.3 31 10.4 ESE 24 35 13 19 1021.1 1020.1 0.0
19/01:30pm 28.6 24.0 9.8 31 10.6 ESE 24 33 13 18 1021.6 1020.6 0.0
19/01:00pm 28.3 23.2 9.1 30 10.7 E 26 41 14 22 1022.0 1021.1 0.0
19/12:30pm 27.0 22.3 9.4 33 9.8 E 24 44 13 24 1022.7 1021.8 0.0
19/12:00pm 27.5 22.3 10.2 34 9.7 E 28 44 15 24 1023.2 1022.3 0.0
19/11:30am 26.2 22.5 9.5 35 9.3 E 19 33 10 18 1023.6 1022.7 0.0
19/11:00am 26.0 21.4 9.8 36 9.0 ESE 24 32 13 17 1024.0 1023.1 0.0
19/10:30am 26.3 24.0 11.6 40 8.5 E 15 32 8 17 1024.4 1023.5 0.0
19/10:00am 25.1 20.5 10.9 41 8.0 E 26 35 14 19 1025.0 1024.0 0.0
19/09:30am 24.2 19.9 11.9 46 7.0 E 26 35 14 19 1025.2 1024.2 0.0
19/09:00am 23.4 20.2 11.8 48 6.6 E 20 30 11 16 1025.6 1024.6 0.0
19/08:30am 22.9 19.7 11.9 50 6.3 E 20 28 11 15 1025.8 1024.8 0.0
19/08:00am 22.1 18.2 12.1 53 5.7 E 24 32 13 17 1025.8 1024.8 0.0
19/07:30am 21.6 18.6 12.7 57 5.1 E 20 28 11 15 1025.4 1024.4 0.0
19/07:00am 20.9 17.5 12.6 59 4.7 E 22 33 12 18 1024.8 1023.9 0.0
19/06:30am 19.8 16.8 12.6 63 4.1 E 20 30 11 16 1024.5 1023.6 0.0
19/06:00am 18.6 15.8 12.6 68 3.4 E 19 24 10 13 1024.0 1023.1 0.0
19/05:30am 18.1 16.7 12.3 69 3.2 ESE 11 17 6 9 1023.9 1023.0 0.0
19/05:00am 18.5 16.4 12.3 67 3.5 ESE 15 20 8 11 1023.6 1022.7 0.0
19/04:30am 18.5 15.5 12.5 68 3.4 E 20 35 11 19 1023.2 1022.3 0.0
19/04:00am 18.6 15.0 13.0 70 3.2 ENE 24 35 13 19 1022.7 1021.8 0.0
19/03:30am 18.5 14.5 13.1 71 3.1 ENE 26 35 14 19 1022.5 1021.6 0.0
19/03:00am 18.9 13.9 13.3 70 3.2 ENE 32 41 17 22 1022.5 1021.6 0.0
19/02:30am 19.0 14.7 13.2 69 3.3 E 28 44 15 24 1022.4 1021.5 0.0
19/02:00am 19.0 14.7 13.2 69 3.3 ENE 28 41 15 22 1022.5 1021.6 0.0
19/01:30am 19.3 15.4 13.2 68 3.5 ENE 26 44 14 24 1022.6 1021.7 0.0
19/01:00am 19.1 16.8 13.1 68 3.4 ENE 17 24 9 13 1023.0 1022.1 0.0
19/12:30am 19.5 15.0 12.7 65 3.9 ENE 28 41 15 22 1023.1 1022.2 0.0
19/12:00am 19.5 14.9 12.3 63 4.0 ENE 28 43 15 23 1023.2 1022.3 0.0
 
Date/Time
EST
Temp
°C
App
Temp
°C
Dew
Point
Rel
Hum
%
Delta-T
°C
Wind Press
QNH
hPa
Press
MSL
hPa
Rain
since 9 am
mm
Dir
 
Spd
km/h
Gust
km/h
Spd
kts
Gust
kts
18/11:30pm 19.7 15.0 12.0 61 4.3 ENE 28 41 15 22 1023.4 1022.5 0.0
18/11:00pm 19.8 15.4 11.8 60 4.5 ENE 26 33 14 18 1023.4 1022.5 0.0
18/10:30pm 19.7 15.9 11.2 58 4.7 ENE 22 30 12 16 1023.4 1022.5 0.0
18/10:00pm 20.3 15.3 11.0 55 5.1 ENE 28 37 15 20 1023.4 1022.5 0.0
18/09:30pm 21.0 15.8 10.2 50 5.9 ENE 28 41 15 22 1023.3 1022.4 0.0
18/09:00pm 21.2 16.3 7.1 40 7.3 ENE 22 32 12 17 1023.2 1022.3 0.0
18/08:30pm 21.7 16.2 6.0 36 8.0 ENE 24 32 13 17 1022.9 1022.0 0.0
18/08:00pm 22.3 17.3 4.8 32 8.7 ENE 20 26 11 14 1022.5 1021.6 0.0
18/07:30pm 22.6 18.4 5.5 33 8.7 ENE 17 22 9 12 1022.1 1021.2 0.0
18/07:00pm 23.8 19.3 7.0 34 8.8 ENE 20 28 11 15 1021.6 1020.6 0.0
18/06:30pm 24.7 20.3 9.0 37 8.6 ENE 22 32 12 17 1020.9 1019.9 0.0
18/06:00pm 26.5 21.7 5.5 26 10.9 E 20 28 11 15 1020.2 1019.2 0.0
18/05:30pm 27.5 22.8 5.1 24 11.6 E 19 28 10 15 1019.7 1018.7 0.0
18/05:00pm 28.1 23.7 5.0 23 12.0 ESE 17 26 9 14 1019.1 1018.2 0.0
18/04:30pm 28.6 24.4 5.5 23 12.1 ENE 17 24 9 13 1018.9 1018.0 0.0
18/04:00pm 28.5 25.4 5.4 23 12.1 E 11 24 6 13 1018.9 1018.0 0.0
18/03:30pm 28.8 23.7 6.2 24 12.0 E 22 26 12 14 1018.9 1018.0 0.0
18/03:00pm 28.8 23.1 6.8 25 11.8 E 26 33 14 18 1019.1 1018.2 0.0
18/02:30pm 28.2 25.3 6.3 25 11.6 NE 11 20 6 11 1019.3 1018.4 0.0
18/02:00pm 29.0 26.0 7.6 26 11.6 S 13 19 7 10 1019.9 1018.9 0.0
18/01:30pm 27.7 23.3 6.5 26 11.3 E 19 28 10 15 1020.3 1019.3 0.0
18/01:00pm 28.3 23.8 7.0 26 11.4 E 20 28 11 15 1020.8 1019.8 0.0
18/12:30pm 27.4 23.1 6.8 27 11.0 E 19 24 10 13 1021.3 1020.3 0.0
18/12:00pm 28.1 24.6 7.4 27 11.2 E 15 39 8 21 1021.9 1021.0 0.0
18/11:30am 28.3 25.1 8.6 29 10.9 NE 15 28 8 15 1022.2 1021.3 0.0
18/11:00am 26.1 21.6 8.6 33 9.5 ESE 22 28 12 15 1022.8 1021.9 0.0
18/10:30am 25.8 22.4 10.4 38 8.7 E 19 30 10 16 1023.2 1022.3 0.0
18/10:00am 25.9 22.6 11.6 40 8.2 E 20 30 11 16 1023.4 1022.5 0.0
18/09:30am 24.6 21.4 11.9 45 7.3 E 20 32 11 17 1023.7 1022.8 0.0
18/09:00am 24.8 22.3 14.0 51 6.4 ENE 20 30 11 16 1023.6 1022.7 0.0
18/08:30am 22.9 20.3 13.9 57 5.3 E 20 30 11 16 1023.5 1022.6 0.0
18/08:00am 22.3 19.7 14.9 63 4.4 ENE 22 32 12 17 1023.3 1022.4 0.0
18/07:30am 21.3 19.2 15.2 68 3.6 E 20 32 11 17 1023.1 1022.2 0.0

Other Formats:

Comma delimited format used in spreadsheet applications
http://www.bom.gov.au/fwo/IDQ60801/IDQ60801.94398.axf

JavaScript Object Notation format (JSON) in row-major order
http://www.bom.gov.au/fwo/IDQ60801/IDQ60801.94398.json